createdAt,value
2018-07-30T00:10:00.568Z,95.80
2018-07-30T00:15:04.116Z,95.80
2018-07-30T00:30:13.511Z,96.10
2018-07-30T00:35:16.767Z,96.00
2018-07-30T00:40:20.463Z,96.10
2018-07-30T00:45:23.748Z,96.30
2018-07-30T00:50:27.479Z,96.60
2018-07-30T00:55:30.736Z,97.00
2018-07-30T01:00:33.987Z,97.20
2018-07-30T01:05:37.285Z,97.10
2018-07-30T01:10:40.572Z,97.00
2018-07-30T01:15:43.852Z,96.90
2018-07-30T01:25:50.931Z,97.00
2018-07-30T01:30:54.693Z,97.90
2018-07-30T01:35:58.699Z,98.20
2018-07-30T01:41:02.016Z,98.80
2018-07-30T01:46:05.713Z,99.10
2018-07-30T01:51:08.980Z,99.70
2018-07-30T01:56:12.216Z,99.90
2018-07-30T02:01:15.498Z,99.90
2018-07-30T02:06:18.741Z,99.90
2018-07-30T02:11:22.004Z,99.90
2018-07-30T02:16:25.303Z,99.90
2018-07-30T02:21:28.645Z,99.90
2018-07-30T02:26:31.850Z,99.90
2018-07-30T02:36:38.187Z,99.90
2018-07-30T02:41:41.799Z,99.90
2018-07-30T02:46:45.052Z,99.90
2018-07-30T02:51:49.565Z,99.90
2018-07-30T02:56:52.819Z,99.90
2018-07-30T03:01:56.084Z,99.90
2018-07-30T03:06:59.352Z,99.90
2018-07-30T03:12:02.836Z,99.90
2018-07-30T03:17:06.439Z,99.90
2018-07-30T03:22:09.977Z,99.90
2018-07-30T03:27:13.427Z,99.90
2018-07-30T03:32:16.704Z,99.90
2018-07-30T03:37:19.967Z,99.90
2018-07-30T03:42:24.282Z,99.90
2018-07-30T03:47:27.472Z,99.90
2018-07-30T03:52:30.728Z,99.90
2018-07-30T03:57:33.975Z,99.90
2018-07-30T04:02:37.236Z,99.90
2018-07-30T04:07:40.503Z,99.90
2018-07-30T04:12:43.803Z,99.90
2018-07-30T04:17:47.043Z,99.90
2018-07-30T04:22:54.018Z,99.90
2018-07-30T04:27:57.286Z,99.90
2018-07-30T04:33:00.552Z,99.90
2018-07-30T04:38:03.831Z,99.90
2018-07-30T04:43:07.103Z,99.90
2018-07-30T04:48:10.495Z,99.90
2018-07-30T04:53:13.783Z,99.90
2018-07-30T04:58:17.063Z,99.90
2018-07-30T05:03:20.342Z,99.90
2018-07-30T05:13:26.686Z,99.90
2018-07-30T05:18:30.003Z,99.90
2018-07-30T05:23:33.307Z,99.90
2018-07-30T05:28:36.602Z,99.90
2018-07-30T05:33:39.877Z,99.90
2018-07-30T05:38:44.160Z,99.80
2018-07-30T05:43:47.476Z,99.50
2018-07-30T05:48:50.737Z,98.60
2018-07-30T05:53:53.986Z,98.20
2018-07-30T05:58:57.265Z,96.10
2018-07-30T06:04:00.519Z,94.00
2018-07-30T06:09:05.779Z,92.10
2018-07-30T06:14:09.018Z,90.60
2018-07-30T06:19:12.292Z,90.40
2018-07-30T06:24:15.555Z,88.50
2018-07-30T06:29:18.837Z,83.80
2018-07-30T06:34:22.108Z,78.80
2018-07-30T06:39:25.381Z,83.20
2018-07-30T06:44:28.662Z,80.60
2018-07-30T06:49:31.939Z,80.80
2018-07-30T06:54:35.204Z,75.10
2018-07-30T06:59:38.460Z,71.80
2018-07-30T07:04:42.414Z,68.00
2018-07-30T07:09:45.980Z,65.80
2018-07-30T07:14:49.337Z,68.30
2018-07-30T07:19:52.592Z,65.70
2018-07-30T07:24:56.118Z,67.40
2018-07-30T07:29:59.479Z,65.80
2018-07-30T07:35:02.851Z,62.90
2018-07-30T07:40:06.838Z,58.80
2018-07-30T07:45:10.750Z,60.60
2018-07-30T07:50:14.799Z,61.10
2018-07-30T07:55:19.181Z,56.60
2018-07-30T08:00:22.528Z,62.70
2018-07-30T08:05:26.023Z,64.90
2018-07-30T08:10:30.947Z,65.70
2018-07-30T08:15:35.021Z,60.40
2018-07-30T08:20:41.842Z,55.80
2018-07-30T08:25:47.362Z,52.90
2018-07-30T08:41:01.299Z,52.70
2018-07-30T08:46:05.372Z,49.00
2018-07-30T08:51:09.292Z,48.00
2018-07-30T08:56:13.195Z,45.30
2018-07-30T09:01:17.357Z,44.50
2018-07-30T09:06:21.152Z,44.70
2018-07-30T09:11:25.221Z,42.80
2018-07-30T09:16:28.688Z,42.50
2018-07-30T09:21:32.781Z,42.20
2018-07-30T09:26:36.275Z,42.10
2018-07-30T09:31:40.039Z,41.20
2018-07-30T09:36:43.933Z,45.40
2018-07-30T09:46:51.360Z,44.40
2018-07-30T09:51:54.984Z,43.20
2018-07-30T09:56:59.072Z,40.90
2018-07-30T10:02:03.460Z,39.90
2018-07-30T10:07:06.851Z,37.00
2018-07-30T10:12:10.659Z,38.50
2018-07-30T10:22:18.677Z,36.80
2018-07-30T10:32:25.406Z,39.60
2018-07-30T10:37:28.687Z,38.50
2018-07-30T10:42:31.955Z,37.60
2018-07-30T10:47:35.216Z,34.90
2018-07-30T10:57:42.389Z,34.90
2018-07-30T11:02:45.963Z,35.00
2018-07-30T11:07:49.633Z,33.80
2018-07-30T11:12:54.775Z,34.80
2018-07-30T11:23:05.106Z,30.40
2018-07-30T11:28:09.372Z,29.30
2018-07-30T11:33:13.111Z,31.20
2018-07-30T11:38:16.867Z,26.10
2018-07-30T11:43:20.336Z,26.90
2018-07-30T11:53:28.817Z,24.90
2018-07-30T11:58:33.967Z,25.30
2018-07-30T12:03:38.679Z,25.70
2018-07-30T12:08:43.499Z,24.90
2018-07-30T12:13:46.758Z,27.00
2018-07-30T12:39:03.427Z,28.40
2018-07-30T12:49:11.888Z,30.00
2018-07-30T12:59:19.206Z,28.00
2018-07-30T13:04:23.450Z,28.00
2018-07-30T13:14:30.966Z,27.10
2018-07-30T13:19:35.198Z,27.40
2018-07-30T13:24:39.096Z,27.70
2018-07-30T13:29:42.921Z,27.10
2018-07-30T13:34:46.498Z,27.70
2018-07-30T13:39:50.121Z,27.30
2018-07-30T13:49:57.456Z,29.20
2018-07-30T13:55:01.390Z,28.50
2018-07-30T14:05:11.492Z,28.20
2018-07-30T14:10:15.083Z,28.90
2018-07-30T14:15:18.848Z,29.10
2018-07-30T14:20:22.188Z,28.80
2018-07-30T14:25:25.402Z,28.30
2018-07-30T14:30:28.666Z,28.50
2018-07-30T14:40:35.947Z,27.90
2018-07-30T14:45:39.466Z,27.60
2018-07-30T14:50:42.900Z,27.30
2018-07-30T14:55:46.312Z,24.60
2018-07-30T15:00:50.235Z,23.60
2018-07-30T15:05:53.532Z,22.10
2018-07-30T15:10:58.565Z,23.00
2018-07-30T15:16:01.856Z,24.70
2018-07-30T15:21:05.367Z,24.50
2018-07-30T15:26:08.635Z,25.10
2018-07-30T15:31:11.903Z,26.40
2018-07-30T15:36:15.644Z,24.50
2018-07-30T15:41:18.895Z,26.10
2018-07-30T15:46:22.273Z,25.80
2018-07-30T15:51:25.573Z,24.90
2018-07-30T15:56:29.913Z,25.50
2018-07-30T16:01:33.619Z,25.40
2018-07-30T16:06:37.024Z,25.80
2018-07-30T16:11:40.262Z,24.60
2018-07-30T16:16:43.542Z,24.80
2018-07-30T16:21:46.815Z,26.50
2018-07-30T16:26:50.092Z,25.00
2018-07-30T16:31:54.529Z,26.20
2018-07-30T16:36:57.799Z,25.80
2018-07-30T16:47:04.083Z,26.30
2018-07-30T16:52:07.343Z,26.10
2018-07-30T16:57:10.703Z,26.20
2018-07-30T17:02:13.962Z,28.80
2018-07-30T17:07:18.643Z,27.00
2018-07-30T17:12:23.171Z,26.90
2018-07-30T17:17:26.452Z,28.10
2018-07-30T17:22:29.722Z,27.80
2018-07-30T17:27:33.166Z,27.80
2018-07-30T17:32:36.459Z,27.90
2018-07-30T17:37:39.708Z,27.60
2018-07-30T17:42:42.963Z,27.70
2018-07-30T17:47:46.247Z,28.20
2018-07-30T17:52:49.500Z,29.00
2018-07-30T17:57:59.266Z,29.30
2018-07-30T18:03:02.611Z,30.60
2018-07-30T18:08:06.045Z,29.70
2018-07-30T18:13:09.305Z,31.90
2018-07-30T18:18:12.591Z,33.40
2018-07-30T18:23:15.841Z,34.30
2018-07-30T18:38:25.195Z,43.50
2018-07-30T18:43:29.684Z,44.50
2018-07-30T18:48:33.315Z,46.30
2018-07-30T19:03:43.355Z,45.10
2018-07-30T19:13:49.634Z,42.40
2018-07-30T19:18:52.984Z,43.20
2018-07-30T19:23:56.223Z,45.60
2018-07-30T19:28:59.487Z,49.10
2018-07-30T19:34:02.764Z,49.30
2018-07-30T19:39:08.241Z,49.20
2018-07-30T19:44:11.745Z,49.20
2018-07-30T19:49:14.959Z,49.10
2018-07-30T19:54:18.247Z,49.40
2018-07-30T19:59:22.342Z,49.70
2018-07-30T20:04:26.240Z,50.60
2018-07-30T20:09:29.491Z,50.80
2018-07-30T20:14:32.731Z,49.00
2018-07-30T20:19:36.245Z,52.30
2018-07-30T20:24:40.182Z,53.00
2018-07-30T20:29:44.227Z,53.20
2018-07-30T20:34:47.619Z,53.50
2018-07-30T20:39:50.934Z,54.90
2018-07-30T20:44:54.282Z,57.00
2018-07-30T20:49:57.638Z,58.30
2018-07-30T20:55:02.770Z,59.20
2018-07-30T21:00:07.189Z,59.70
2018-07-30T21:05:11.011Z,60.60
2018-07-30T21:15:17.511Z,62.70
2018-07-30T21:20:21.272Z,64.30
2018-07-30T21:25:25.208Z,65.60
2018-07-30T21:30:29.192Z,66.10
2018-07-30T21:35:32.519Z,67.60
2018-07-30T21:40:36.047Z,69.00
2018-07-30T21:45:39.719Z,70.30
2018-07-30T21:50:43.524Z,70.80
2018-07-30T21:55:46.797Z,72.20
2018-07-30T22:00:58.304Z,72.70
2018-07-30T22:06:02.488Z,73.50
2018-07-30T22:11:06.380Z,76.00
2018-07-30T22:16:10.324Z,76.30
2018-07-30T22:21:13.597Z,77.70
2018-07-30T22:31:20.954Z,83.00
2018-07-30T22:41:27.351Z,87.00
2018-07-30T22:51:33.644Z,87.50
2018-07-30T22:56:36.906Z,87.90
2018-07-30T23:01:40.151Z,89.10
2018-07-30T23:06:43.435Z,89.70
2018-07-30T23:11:46.875Z,90.00
2018-07-30T23:16:50.186Z,90.90
2018-07-30T23:21:53.440Z,91.10
2018-07-30T23:26:56.933Z,91.40
2018-07-30T23:32:00.221Z,91.90
2018-07-30T23:37:03.549Z,92.10
2018-07-30T23:42:07.059Z,92.50
2018-07-30T23:47:10.327Z,92.40
2018-07-30T23:52:13.585Z,92.40
2018-07-30T23:57:17.136Z,92.70
